Ralph Wenz Field Pinedale US
ICAO: KPNA
IATA: PNA
Category: Medium
Scheduled Services: No

Elevation: 7102 ft
TransAlt. 18000 ft.

Airport Communications:
AWOS 3:118.325
SALT LAKE CITY CNTR:128.35
CTAF/UNICOM:122.8

KPNA Zoom In..

If you have problems with the map follow the link
https://www.worldairports.se/pages/airport.php?
ICAO=KPNA

Runways:

(A) RW 11 length 8900 ft width 100 ft
---- / hdg 110

(B) RW 29 length 8900 ft width 100 ft
---- / hdg 290

Location; KPNA
Day. 10 / Time. 01.35 Zulu
* Altimeter: 30.05
* Temperature: -08° c. -17.6°f.
* Wind from: 260° Speed 10 kn.
Dewpoint: -11° c.
Visibility: 10 Statute Miles.
Clouds: Clear (automated report).

KPNA 100135Z AUTO 26010KT 10SM CLR M08/M11 A3005 RMK AO2


Wind From 260°
Speed 10 kn.

 
 
jpsmedia worldairports.se 2019   terms of use